Time;durP1;ratioP1;P1;durP2;ratioP2;P2;SDS_P1;SDS_P2;PMS_P1;PMS_P2;Temp;Humidity;BMP_temperature;BMP_pressure;BME280_temperature;BME280_humidity;BME280_pressure;Samples;Min_cycle;Max_cycle;Signal;HPM_P1;HPM_P2
2022/03/02 00:00:10;;;;;;;25.33;9.60;;;-4.30;1.00;;;;;;4390909;28;657440;-75
2022/03/02 00:02:57;;;;;;;24.33;9.43;;;-4.30;1.00;;;;;;4390139;28;658050;-76
2022/03/02 00:05:45;;;;;;;27.20;9.47;;;-4.40;1.00;;;;;;4412952;28;657535;-76
2022/03/02 00:08:32;;;;;;;28.73;10.77;;;-4.30;1.00;;;;;;4390215;28;658671;-76
2022/03/02 00:11:20;;;;;;;28.70;9.63;;;-4.40;1.00;;;;;;4412122;28;659238;-75
2022/03/02 00:14:08;;;;;;;26.30;9.87;;;-4.40;1.00;;;;;;4412796;28;658423;-75
2022/03/02 00:16:57;;;;;;;26.10;9.77;;;-4.40;1.00;;;;;;4393913;28;658004;-74
2022/03/02 00:19:44;;;;;;;27.73;9.77;;;-4.40;1.00;;;;;;4411745;28;657946;-74
2022/03/02 00:22:32;;;;;;;28.40;9.27;;;-4.40;1.00;;;;;;4389156;28;658595;-76
2022/03/02 00:25:20;;;;;;;27.58;9.43;;;-4.40;1.00;;;;;;4405733;28;657350;-76
2022/03/02 00:28:07;;;;;;;24.93;8.83;;;-4.40;1.00;;;;;;4388759;28;658413;-75
2022/03/02 00:30:55;;;;;;;27.47;9.87;;;-4.40;1.00;;;;;;4411294;28;657315;-76
2022/03/02 00:33:44;;;;;;;25.10;9.60;;;-4.40;1.00;;;;;;4386286;28;658175;-75
2022/03/02 00:36:31;;;;;;;28.90;10.63;;;-4.40;1.00;;;;;;4388274;28;657735;-76
2022/03/02 00:39:19;;;;;;;25.27;9.50;;;-4.50;1.00;;;;;;4409470;28;659713;-75
2022/03/02 00:42:07;;;;;;;26.60;9.70;;;-4.50;1.00;;;;;;4390585;28;657709;-76
2022/03/02 00:44:54;;;;;;;23.20;8.73;;;-4.50;1.00;;;;;;4411566;28;657928;-76
2022/03/02 00:47:42;;;;;;;27.93;10.07;;;-4.50;1.00;;;;;;4389649;28;658627;-75
2022/03/02 00:50:32;;;;;;;31.90;9.97;;;-4.50;1.00;;;;;;4406030;28;658540;-75
2022/03/02 00:53:20;;;;;;;30.73;9.70;;;-4.50;1.00;;;;;;4405429;28;658008;-76
2022/03/02 00:56:09;;;;;;;28.93;9.70;;;-4.50;1.00;;;;;;4392180;28;658686;-76
2022/03/02 00:58:56;;;;;;;27.23;9.63;;;-4.60;1.00;;;;;;4392588;28;657863;-76
2022/03/02 01:01:44;;;;;;;28.43;9.30;;;-4.60;1.00;;;;;;4408692;28;657789;-76
2022/03/02 01:04:31;;;;;;;29.67;10.23;;;-4.60;1.00;;;;;;4381649;28;657463;-76
2022/03/02 01:07:21;;;;;;;29.30;10.27;;;-4.60;1.00;;;;;;4410168;28;658723;-75
2022/03/02 01:10:08;;;;;;;28.50;10.23;;;-4.70;1.00;;;;;;4387507;28;659913;-76
2022/03/02 01:12:56;;;;;;;31.30;10.20;;;-4.70;1.00;;;;;;4391647;28;659102;-76
2022/03/02 01:15:43;;;;;;;30.13;9.53;;;-4.70;1.00;;;;;;4407105;28;660055;-76
2022/03/02 01:18:31;;;;;;;23.47;10.13;;;-4.80;1.00;;;;;;4387755;28;658485;-76
2022/03/02 01:21:18;;;;;;;27.33;10.07;;;-4.80;1.00;;;;;;4404367;28;659666;-76
2022/03/02 01:24:08;;;;;;;25.83;9.30;;;-4.80;1.00;;;;;;4390806;28;659167;-75
2022/03/02 01:26:55;;;;;;;32.83;10.43;;;-4.90;1.00;;;;;;4400564;28;658000;-74
2022/03/02 01:29:43;;;;;;;28.10;9.87;;;-4.90;1.00;;;;;;4406478;28;659720;-76
2022/03/02 01:32:30;;;;;;;27.57;10.27;;;-4.90;1.00;;;;;;4392676;28;657585;-75
2022/03/02 01:35:18;;;;;;;31.37;10.07;;;-5.00;1.00;;;;;;4409463;28;659850;-76
2022/03/02 01:38:05;;;;;;;27.25;9.40;;;-4.90;1.00;;;;;;4390564;28;659081;-74
2022/03/02 01:40:55;;;;;;;26.47;9.20;;;-5.00;1.00;;;;;;4411191;28;658550;-76
2022/03/02 01:43:42;;;;;;;30.97;10.53;;;-5.00;1.00;;;;;;4380530;28;658658;-76
2022/03/02 01:46:30;;;;;;;26.73;10.30;;;-5.00;1.00;;;;;;4407354;28;659064;-75
2022/03/02 01:49:17;;;;;;;27.00;9.20;;;-5.10;1.00;;;;;;4390383;28;659096;-76
2022/03/02 01:52:05;;;;;;;26.63;9.60;;;-5.10;1.00;;;;;;4407741;28;657954;-74
2022/03/02 01:54:53;;;;;;;27.37;9.53;;;-5.10;1.00;;;;;;4414613;28;658171;-76
2022/03/02 01:57:42;;;;;;;29.07;9.77;;;-5.20;1.00;;;;;;4391093;28;657942;-75
2022/03/02 02:00:30;;;;;;;27.20;9.77;;;-5.20;1.00;;;;;;4404878;28;658333;-76
2022/03/02 02:03:17;;;;;;;27.63;9.87;;;-5.20;1.00;;;;;;4382340;28;658469;-73
2022/03/02 02:06:05;;;;;;;28.47;9.57;;;-5.30;1.00;;;;;;4417620;28;656809;-75
2022/03/02 02:08:52;;;;;;;30.87;10.37;;;-5.30;1.00;;;;;;4389191;28;657656;-76
2022/03/02 02:11:40;;;;;;;32.73;10.10;;;-5.40;1.00;;;;;;4406605;28;659071;-74
2022/03/02 02:14:29;;;;;;;29.03;9.93;;;-5.40;1.00;;;;;;4408840;28;658923;-76
2022/03/02 02:17:17;;;;;;;30.50;10.07;;;-5.40;1.00;;;;;;4394859;28;657478;-76
2022/03/02 02:20:06;;;;;;;33.77;10.00;;;-5.50;1.00;;;;;;4411543;28;658628;-75
2022/03/02 02:22:55;;;;;;;27.27;9.47;;;-5.50;1.00;;;;;;4392467;28;659413;-75
2022/03/02 02:25:42;;;;;;;36.80;10.17;;;-5.50;9.10;;;;;;4387868;28;658349;-76
2022/03/02 02:28:30;;;;;;;25.07;9.70;;;-5.60;12.50;;;;;;4412246;28;658787;-76
2022/03/02 02:31:17;;;;;;;28.70;9.53;;;-5.60;16.30;;;;;;4392764;28;659215;-76
2022/03/02 02:34:05;;;;;;;29.07;10.27;;;-5.60;34.10;;;;;;4411690;28;659445;-73
2022/03/02 02:36:53;;;;;;;29.63;9.17;;;-5.60;38.80;;;;;;4411434;28;660542;-76
2022/03/02 02:39:42;;;;;;;28.43;9.30;;;-5.60;74.90;;;;;;4393153;28;660040;-74
2022/03/02 02:42:29;;;;;;;31.15;10.45;;;-5.60;89.70;;;;;;4407003;28;658621;-75
2022/03/02 02:45:20;;;;;;;30.73;10.73;;;-5.60;76.30;;;;;;4394020;28;660423;-75
2022/03/02 02:48:07;;;;;;;31.47;10.57;;;-5.60;99.90;;;;;;4399571;28;660760;-75
2022/03/02 02:50:55;;;;;;;35.60;11.50;;;-5.50;99.90;;;;;;4416791;28;660245;-75
2022/03/02 02:53:42;;;;;;;28.37;10.43;;;-5.40;99.90;;;;;;4396465;28;660205;-75
2022/03/02 02:56:31;;;;;;;28.23;10.40;;;-5.40;99.90;;;;;;4414779;28;659991;-75
2022/03/02 02:59:18;;;;;;;27.77;9.73;;;-5.30;99.90;;;;;;4394351;28;660410;-75
2022/03/02 03:02:06;;;;;;;26.97;9.63;;;-5.30;99.90;;;;;;4392580;28;658932;-75
2022/03/02 03:04:53;;;;;;;28.98;10.75;;;-5.30;99.90;;;;;;4410067;28;659847;-75
2022/03/02 03:07:41;;;;;;;30.53;10.20;;;-5.20;99.90;;;;;;4393891;28;660415;-75
2022/03/02 03:10:30;;;;;;;35.30;10.80;;;-5.20;99.90;;;;;;4410896;28;660286;-75
2022/03/02 03:13:19;;;;;;;31.63;10.63;;;-5.20;99.90;;;;;;4386665;28;660304;-75
2022/03/02 03:16:07;;;;;;;31.93;11.57;;;-5.10;99.90;;;;;;4395453;28;659564;-75
2022/03/02 03:18:55;;;;;;;31.80;11.23;;;-5.10;99.90;;;;;;4410535;28;660147;-76
2022/03/02 03:21:42;;;;;;;28.40;10.73;;;-5.10;99.90;;;;;;4378216;28;660917;-76
2022/03/02 03:24:30;;;;;;;30.77;11.17;;;-5.10;99.90;;;;;;4402666;28;660265;-76
2022/03/02 03:27:18;;;;;;;28.57;10.67;;;-5.00;99.90;;;;;;4386364;28;660564;-76
2022/03/02 03:30:09;;;;;;;33.43;11.00;;;-5.00;99.90;;;;;;4409245;28;660103;-74
2022/03/02 03:32:56;;;;;;;27.77;10.50;;;-5.00;99.90;;;;;;4396309;28;660164;-75
2022/03/02 03:35:43;;;;;;;28.43;11.17;;;-4.90;99.90;;;;;;4391088;28;660320;-75
2022/03/02 03:38:31;;;;;;;37.17;10.70;;;-4.90;99.90;;;;;;4390411;28;659622;-75
2022/03/02 03:41:18;;;;;;;29.02;10.73;;;-4.80;99.90;;;;;;4414170;28;659972;-75
2022/03/02 03:44:06;;;;;;;32.20;11.43;;;-4.80;98.40;;;;;;4389658;28;660021;-75
2022/03/02 03:46:55;;;;;;;31.13;10.90;;;-4.80;86.90;;;;;;4404037;28;660330;-75
2022/03/02 03:49:42;;;;;;;30.67;11.17;;;-4.80;69.90;;;;;;4362438;28;660214;-75
2022/03/02 03:52:30;;;;;;;32.97;11.03;;;-4.80;17.70;;;;;;4384342;28;659998;-76
2022/03/02 03:55:18;;;;;;;32.60;10.53;;;-4.90;17.70;;;;;;4385496;28;660676;-75
2022/03/02 03:58:05;;;;;;;26.97;10.23;;;-4.90;11.30;;;;;;4364047;28;659670;-75
2022/03/02 04:00:53;;;;;;;27.37;10.20;;;-4.90;11.70;;;;;;4387910;28;660685;-75
2022/03/02 04:03:42;;;;;;;30.05;10.13;;;-4.80;1.00;;;;;;4358736;28;659547;-74
2022/03/02 04:06:29;;;;;;;27.50;10.40;;;-4.90;1.00;;;;;;4376644;28;658634;-75
2022/03/02 04:09:17;;;;;;;30.77;9.87;;;-4.90;1.00;;;;;;4364407;28;658999;-76
2022/03/02 04:12:05;;;;;;;30.13;9.83;;;-4.90;1.00;;;;;;4385253;28;657863;-75
2022/03/02 04:14:53;;;;;;;26.70;9.93;;;-4.90;1.00;;;;;;4355427;28;658576;-75
2022/03/02 04:17:41;;;;;;;26.97;10.03;;;-5.00;1.00;;;;;;4356572;28;657452;-73
2022/03/02 04:20:30;;;;;;;27.17;10.67;;;-5.00;1.00;;;;;;4386259;28;658894;-73
2022/03/02 04:23:17;;;;;;;28.40;10.30;;;-5.00;1.00;;;;;;4362524;28;659332;-76
2022/03/02 04:26:05;;;;;;;27.00;9.90;;;-5.00;1.00;;;;;;4386956;28;658549;-75
2022/03/02 04:28:52;;;;;;;33.57;10.20;;;-5.00;1.00;;;;;;4363937;28;658554;-75
2022/03/02 04:31:40;;;;;;;26.73;9.93;;;-5.10;1.00;;;;;;4369462;28;658705;-76
2022/03/02 04:34:27;;;;;;;28.17;9.67;;;-5.10;7.20;;;;;;4367638;28;658572;-75
2022/03/02 04:37:16;;;;;;;31.03;10.87;;;-5.10;13.60;;;;;;4383546;28;658691;-75
2022/03/02 04:40:05;;;;;;;25.57;9.47;;;-5.00;19.60;;;;;;4354895;28;660572;-76
2022/03/02 04:42:54;;;;;;;26.00;9.50;;;-5.10;64.80;;;;;;4362937;28;659554;-75
2022/03/02 04:45:42;;;;;;;27.83;9.17;;;-5.10;45.40;;;;;;4355867;28;658961;-75
2022/03/02 04:48:29;;;;;;;24.73;9.57;;;-5.10;23.20;;;;;;4382827;28;658814;-76
2022/03/02 04:51:18;;;;;;;26.47;10.40;;;-5.10;27.70;;;;;;4357671;28;658548;-76
2022/03/02 04:54:07;;;;;;;27.50;10.03;;;-5.10;81.80;;;;;;4370837;28;659909;-74
2022/03/02 04:56:55;;;;;;;38.20;10.57;;;-5.10;92.40;;;;;;4375383;28;659828;-74
2022/03/02 04:59:43;;;;;;;27.30;10.00;;;-5.10;70.70;;;;;;4406779;28;660574;-75
2022/03/02 05:02:31;;;;;;;28.15;10.38;;;-5.10;53.40;;;;;;4386320;28;660679;-73
2022/03/02 05:05:21;;;;;;;24.67;9.33;;;-5.10;99.90;;;;;;4407299;28;659967;-75
2022/03/02 05:08:08;;;;;;;26.77;10.00;;;-5.10;99.90;;;;;;4384551;28;658707;-75
2022/03/02 05:10:57;;;;;;;24.97;10.03;;;-5.10;97.90;;;;;;4390733;28;660052;-75
2022/03/02 05:13:45;;;;;;;28.63;9.90;;;-5.10;91.50;;;;;;4410113;28;659847;-76
2022/03/02 05:16:38;;;;;;;27.60;10.07;;;-5.10;87.70;;;;;;4386994;28;659280;-76
2022/03/02 05:19:56;;;;;;;32.17;10.90;;;-5.10;93.80;;;;;;4362662;28;659452;-75
2022/03/02 05:22:43;;;;;;;32.45;11.35;;;-5.20;91.10;;;;;;4372298;28;659958;-75
2022/03/02 05:25:31;;;;;;;28.43;10.77;;;-5.10;98.60;;;;;;4391599;28;660131;-73
2022/03/02 05:28:20;;;;;;;24.58;10.35;;;-5.10;99.90;;;;;;4414270;28;660457;-75
2022/03/02 05:31:08;;;;;;;31.13;10.70;;;-5.10;99.90;;;;;;4393719;28;660487;-75
2022/03/02 05:33:56;;;;;;;25.20;10.43;;;-5.00;95.20;;;;;;4388059;28;660232;-74
2022/03/02 05:36:43;;;;;;;31.33;10.80;;;-5.00;91.50;;;;;;4422568;28;660929;-76
2022/03/02 05:39:31;;;;;;;25.10;9.73;;;-4.90;70.80;;;;;;4393758;28;660399;-75
2022/03/02 05:42:18;;;;;;;28.30;10.93;;;-4.90;49.80;;;;;;4412775;28;659827;-76
2022/03/02 05:45:09;;;;;;;32.40;11.27;;;-4.80;69.20;;;;;;4393354;28;660042;-75
2022/03/02 05:47:56;;;;;;;31.10;10.77;;;-4.70;60.90;;;;;;4388266;28;660461;-76
2022/03/02 05:50:44;;;;;;;27.20;10.87;;;-4.70;11.70;;;;;;4406216;28;659654;-76
2022/03/02 05:53:31;;;;;;;28.43;10.80;;;-4.70;1.00;;;;;;4398013;28;659723;-75
2022/03/02 05:56:19;;;;;;;25.43;10.20;;;-4.70;1.00;;;;;;4406175;28;659542;-76
2022/03/02 05:59:07;;;;;;;28.13;10.50;;;-4.60;5.00;;;;;;4392267;28;658573;-76
2022/03/02 06:01:56;;;;;;;27.30;11.00;;;-4.50;1.00;;;;;;4407279;28;659213;-75
2022/03/02 06:04:44;;;;;;;33.33;11.70;;;-4.50;1.00;;;;;;4377779;28;659373;-75
2022/03/02 06:07:31;;;;;;;29.60;12.10;;;-4.40;1.00;;;;;;4394221;28;658447;-75
2022/03/02 06:10:22;;;;;;;31.10;12.23;;;-4.30;1.00;;;;;;4409643;28;659122;-75
2022/03/02 06:13:10;;;;;;;29.87;11.30;;;-4.20;1.00;;;;;;4381912;28;658979;-76
2022/03/02 06:15:58;;;;;;;28.10;11.93;;;-4.00;1.00;;;;;;4376229;28;659394;-76
2022/03/02 06:18:48;;;;;;;35.77;12.10;;;-3.90;1.00;;;;;;4387246;28;658243;-75
2022/03/02 06:21:38;;;;;;;31.80;12.23;;;-3.80;1.00;;;;;;4378739;28;658717;-74
2022/03/02 06:24:26;;;;;;;30.50;11.57;;;-3.60;1.00;;;;;;4372991;28;658330;-75
2022/03/02 06:27:14;;;;;;;30.13;11.53;;;-3.50;1.00;;;;;;4408226;28;659236;-75
2022/03/02 06:30:01;;;;;;;37.43;12.53;;;-3.40;1.00;;;;;;4384318;28;658699;-76
2022/03/02 06:32:49;;;;;;;27.43;11.47;;;-3.30;1.00;;;;;;4392242;28;658593;-75
2022/03/02 06:35:38;;;;;;;35.73;12.20;;;-3.10;1.00;;;;;;4382316;28;659004;-76
2022/03/02 06:38:27;;;;;;;32.23;11.43;;;-2.90;1.00;;;;;;4384730;28;658436;-74
2022/03/02 06:41:19;;;;;;;27.23;11.23;;;-2.70;1.00;;;;;;4400902;28;658208;-76
2022/03/02 06:44:09;;;;;;;32.37;10.63;;;-2.50;1.00;;;;;;4348423;28;659735;-75
2022/03/02 06:46:59;;;;;;;26.97;10.63;;;-2.30;1.00;;;;;;4392850;28;659784;-75
2022/03/02 06:49:54;;;;;;;25.87;10.73;;;-2.20;1.00;;;;;;4390784;28;658643;-75
2022/03/02 06:52:44;;;;;;;28.10;10.80;;;-1.90;1.00;;;;;;4352826;28;658607;-75
2022/03/02 06:55:32;;;;;;;27.47;10.90;;;-1.70;1.00;;;;;;4383124;28;659194;-74
2022/03/02 06:58:19;;;;;;;32.60;11.88;;;-1.50;1.00;;;;;;4397512;28;658966;-76
2022/03/02 07:01:07;;;;;;;26.67;10.53;;;-1.30;1.00;;;;;;4373424;28;658812;-76
2022/03/02 07:03:57;;;;;;;26.93;10.63;;;-1.20;1.00;;;;;;4397641;28;658634;-75
2022/03/02 07:06:44;;;;;;;24.23;10.47;;;-1.00;1.00;;;;;;4380008;28;658094;-76
2022/03/02 07:09:33;;;;;;;25.70;9.93;;;-0.80;1.00;;;;;;4385045;28;658917;-74
2022/03/02 07:12:21;;;;;;;24.87;10.50;;;-0.60;1.00;;;;;;4389814;28;657553;-75
2022/03/02 07:15:09;;;;;;;28.80;10.13;;;-0.40;1.00;;;;;;4407956;28;659616;-76
2022/03/02 07:17:57;;;;;;;26.30;10.70;;;-0.20;1.00;;;;;;4377753;28;658673;-75
2022/03/02 07:20:45;;;;;;;27.70;10.40;;;0.00;1.00;;;;;;4396581;28;658846;-75
2022/03/02 07:23:35;;;;;;;25.20;11.03;;;0.10;1.00;;;;;;4385964;28;658666;-75
2022/03/02 07:26:24;;;;;;;23.85;10.43;;;0.30;1.00;;;;;;4386849;28;658413;-75
2022/03/02 07:29:12;;;;;;;23.20;10.17;;;0.50;1.00;;;;;;4370277;28;657563;-75
2022/03/02 07:31:59;;;;;;;39.63;11.70;;;0.70;1.00;;;;;;4402326;28;657782;-75
2022/03/02 07:34:47;;;;;;;20.90;9.10;;;0.90;1.00;;;;;;4387920;28;657970;-75
2022/03/02 07:37:35;;;;;;;19.00;8.30;;;1.10;1.00;;;;;;4393540;28;656375;-75
2022/03/02 07:40:22;;;;;;;20.10;8.67;;;1.30;1.00;;;;;;4379085;28;657519;-75
2022/03/02 07:43:11;;;;;;;18.20;8.60;;;1.50;1.00;;;;;;4393984;28;656594;-76
2022/03/02 07:45:59;;;;;;;22.40;8.83;;;1.70;1.00;;;;;;4365534;28;656662;-75
2022/03/02 07:48:47;;;;;;;35.93;11.40;;;1.90;1.00;;;;;;4393811;28;657133;-75
2022/03/02 07:51:38;;;;;;;38.00;13.00;;;2.00;1.00;;;;;;4406625;28;657624;-75
2022/03/02 07:54:26;;;;;;;25.97;8.87;;;2.20;1.00;;;;;;4369516;28;657622;-74
2022/03/02 07:57:15;;;;;;;20.57;8.70;;;2.30;1.00;;;;;;4408106;28;656759;-75
2022/03/02 08:00:05;;;;;;;20.50;8.23;;;2.50;1.00;;;;;;4394439;28;657003;-75
2022/03/02 08:02:54;;;;;;;20.05;9.55;;;2.60;1.00;;;;;;4392704;28;658318;-75
2022/03/02 08:05:43;;;;;;;18.97;8.73;;;2.80;1.00;;;;;;4392651;28;656733;-74
2022/03/02 08:08:31;;;;;;;31.53;11.87;;;2.90;1.00;;;;;;4377001;28;656727;-74
2022/03/02 08:11:18;;;;;;;19.23;8.57;;;3.00;1.00;;;;;;4405008;28;659159;-74
2022/03/02 08:14:06;;;;;;;16.13;7.73;;;3.10;1.00;;;;;;4380158;28;658392;-75
2022/03/02 08:16:55;;;;;;;16.93;8.13;;;3.40;1.00;;;;;;4403880;28;657469;-74
2022/03/02 08:19:43;;;;;;;19.37;8.57;;;3.50;1.00;;;;;;4381959;28;658347;-75
2022/03/02 08:22:31;;;;;;;17.03;7.93;;;3.70;1.00;;;;;;4388373;28;657717;-73
2022/03/02 08:25:21;;;;;;;22.40;9.55;;;3.80;1.00;;;;;;4401416;28;657372;-75
2022/03/02 08:28:10;;;;;;;19.07;8.70;;;3.90;1.00;;;;;;4373543;28;657410;-75
2022/03/02 08:30:57;;;;;;;25.13;8.43;;;4.00;1.00;;;;;;4382336;28;658935;-75
2022/03/02 08:33:47;;;;;;;19.20;8.77;;;4.00;1.00;;;;;;4390576;28;658361;-74
2022/03/02 08:36:35;;;;;;;20.27;9.27;;;4.10;1.00;;;;;;4406892;28;657972;-75
2022/03/02 08:39:22;;;;;;;15.87;7.83;;;4.10;1.00;;;;;;4379735;28;659139;-75
2022/03/02 08:42:10;;;;;;;15.70;7.10;;;4.30;1.00;;;;;;4399377;28;657444;-75
2022/03/02 08:44:58;;;;;;;17.03;7.40;;;4.50;1.00;;;;;;4374641;28;658163;-75
2022/03/02 08:47:46;;;;;;;12.45;6.60;;;4.70;1.00;;;;;;4379250;28;657778;-74
2022/03/02 08:50:35;;;;;;;15.53;7.63;;;4.90;1.00;;;;;;4399678;28;657551;-75
2022/03/02 08:53:22;;;;;;;20.97;8.70;;;5.00;1.00;;;;;;4359512;28;658458;-75
2022/03/02 08:56:11;;;;;;;24.30;8.93;;;5.20;1.00;;;;;;4391636;28;657516;-74
2022/03/02 08:58:58;;;;;;;17.97;8.43;;;5.40;1.00;;;;;;4390520;28;657912;-75
2022/03/02 09:01:49;;;;;;;19.43;8.10;;;5.40;1.00;;;;;;4378175;28;657671;-73
2022/03/02 09:04:38;;;;;;;15.90;7.10;;;5.40;1.00;;;;;;4382083;28;658897;-75
2022/03/02 09:07:27;;;;;;;18.77;8.20;;;5.60;1.00;;;;;;4368802;28;657459;-73
2022/03/02 09:10:16;;;;;;;14.20;7.00;;;5.80;1.00;;;;;;4400472;28;657350;-74
2022/03/02 09:13:03;;;;;;;16.40;7.67;;;5.60;1.00;;;;;;4403469;28;658174;-75
2022/03/02 09:15:51;;;;;;;13.70;6.93;;;5.60;1.00;;;;;;4380436;28;658096;-73
2022/03/02 09:18:38;;;;;;;17.07;7.87;;;5.80;1.00;;;;;;4415691;28;658729;-75
2022/03/02 09:21:27;;;;;;;15.33;7.13;;;6.00;1.00;;;;;;4376845;28;657549;-74
2022/03/02 09:24:16;;;;;;;15.73;7.45;;;6.10;1.00;;;;;;4402430;28;657353;-74
2022/03/02 09:27:04;;;;;;;17.60;8.17;;;6.20;1.00;;;;;;4371217;28;658356;-75
2022/03/02 09:29:51;;;;;;;16.13;7.73;;;6.60;1.00;;;;;;4378132;28;657897;-75
2022/03/02 09:32:41;;;;;;;16.97;7.03;;;6.80;1.00;;;;;;4394254;28;658827;-75
2022/03/02 09:35:28;;;;;;;14.07;7.67;;;6.60;1.00;;;;;;4376579;28;657892;-75
2022/03/02 09:38:17;;;;;;;17.57;7.77;;;7.00;1.00;;;;;;4380689;28;658021;-75
2022/03/02 09:41:07;;;;;;;17.30;8.07;;;7.30;1.00;;;;;;4393244;28;658315;-75
2022/03/02 09:43:57;;;;;;;17.00;7.47;;;7.30;1.00;;;;;;4378946;28;657993;-75
2022/03/02 09:46:44;;;;;;;13.40;7.07;;;7.50;1.00;;;;;;4399184;28;657862;-75
2022/03/02 09:49:32;;;;;;;18.57;8.30;;;7.70;1.00;;;;;;4380206;28;657446;-75
2022/03/02 09:52:20;;;;;;;14.40;7.23;;;7.70;1.00;;;;;;4399402;28;657513;-75
2022/03/02 09:55:12;;;;;;;15.57;7.53;;;7.80;1.00;;;;;;4380314;28;658225;-74
2022/03/02 09:58:01;;;;;;;13.63;7.30;;;7.80;1.00;;;;;;4374925;28;657814;-75
2022/03/02 10:00:49;;;;;;;13.67;7.50;;;8.00;1.00;;;;;;4378914;28;658070;-74
2022/03/02 10:03:38;;;;;;;12.85;6.78;;;8.20;1.00;;;;;;4379347;28;657646;-74
2022/03/02 10:06:26;;;;;;;13.70;7.30;;;8.40;1.00;;;;;;4381310;28;657960;-74
2022/03/02 10:09:14;;;;;;;10.53;5.77;;;8.30;1.00;;;;;;4406695;28;658231;-75
2022/03/02 10:12:01;;;;;;;10.80;5.87;;;8.10;1.00;;;;;;4383171;28;657801;-74
2022/03/02 10:14:50;;;;;;;10.07;5.23;;;8.00;1.00;;;;;;4407712;28;658024;-75
2022/03/02 10:17:39;;;;;;;11.40;5.23;;;8.10;1.00;;;;;;4379699;28;658231;-73
2022/03/02 10:20:28;;;;;;;12.23;5.93;;;8.20;1.00;;;;;;4379878;28;657634;-74
2022/03/02 10:23:25;;;;;;;18.87;9.63;;;8.40;1.00;;;;;;4387968;28;657481;-74
2022/03/02 10:26:16;;;;;;;8.87;4.63;;;8.70;1.00;;;;;;4362172;28;658384;-74
2022/03/02 10:29:05;;;;;;;10.40;4.77;;;9.00;1.00;;;;;;4382350;28;658008;-75
2022/03/02 10:32:05;;;;;;;19.43;9.50;;;9.30;1.00;;;;;;4386233;28;658056;-74
2022/03/02 10:34:55;;;;;;;12.70;5.90;;;9.30;1.00;;;;;;4358884;28;658773;-75
2022/03/02 10:37:50;;;;;;;11.80;5.63;;;9.20;1.00;;;;;;4391210;28;657932;-75
2022/03/02 10:40:38;;;;;;;12.20;5.63;;;9.20;1.00;;;;;;4381451;28;657835;-74
2022/03/02 10:43:26;;;;;;;10.17;5.23;;;9.60;1.00;;;;;;4388173;28;657982;-74
2022/03/02 10:46:13;;;;;;;9.53;5.03;;;9.50;1.00;;;;;;4408706;28;658176;-74
2022/03/02 10:49:06;;;;;;;10.47;5.57;;;9.60;1.00;;;;;;4383356;28;656548;-74
2022/03/02 10:51:54;;;;;;;14.43;6.13;;;9.70;1.00;;;;;;4378320;28;657480;-74
2022/03/02 10:54:42;;;;;;;13.32;5.70;;;9.80;1.00;;;;;;4385391;28;657577;-73
2022/03/02 10:57:29;;;;;;;14.70;7.53;;;10.20;1.00;;;;;;4400139;28;657555;-73
2022/03/02 11:00:18;;;;;;;22.50;9.10;;;10.50;1.00;;;;;;4382024;28;658969;-73
2022/03/02 11:03:08;;;;;;;14.23;6.60;;;11.00;1.00;;;;;;4380787;28;659077;-74
2022/03/02 11:06:00;;;;;;;13.33;5.80;;;10.70;1.00;;;;;;4390719;28;659233;-73
2022/03/02 11:08:47;;;;;;;11.90;5.80;;;10.50;1.00;;;;;;4375976;28;658409;-75
2022/03/02 11:11:37;;;;;;;11.50;5.80;;;10.30;1.00;;;;;;4397878;28;658906;-73
2022/03/02 11:14:24;;;;;;;18.07;7.13;;;10.30;1.00;;;;;;4397809;28;658892;-75
2022/03/02 11:17:15;;;;;;;11.33;5.57;;;10.40;1.00;;;;;;4382390;28;659267;-74
2022/03/02 11:20:06;;;;;;;10.50;5.50;;;10.10;1.00;;;;;;4376272;28;660686;-75
2022/03/02 11:22:59;;;;;;;10.50;5.57;;;10.20;1.00;;;;;;4372727;28;658708;-75
2022/03/02 11:25:48;;;;;;;9.45;5.40;;;10.60;1.00;;;;;;4381159;28;658602;-74
2022/03/02 11:28:36;;;;;;;13.13;6.17;;;11.00;1.00;;;;;;4385335;28;657509;-74
2022/03/02 11:31:26;;;;;;;15.07;6.50;;;11.20;1.00;;;;;;4402141;28;658870;-75
2022/03/02 11:34:14;;;;;;;15.63;6.17;;;11.70;1.00;;;;;;4378709;28;659370;-74
2022/03/02 11:37:04;;;;;;;10.63;5.73;;;12.20;1.00;;;;;;4377801;28;658627;-75
2022/03/02 11:39:53;;;;;;;12.83;6.87;;;11.80;1.00;;;;;;4386161;28;658614;-74
2022/03/02 11:42:42;;;;;;;12.83;6.90;;;11.70;1.00;;;;;;4378742;28;658460;-74
2022/03/02 11:45:31;;;;;;;12.80;6.30;;;12.20;1.00;;;;;;4400794;28;658392;-74
2022/03/02 11:48:22;;;;;;;11.33;6.57;;;12.20;1.00;;;;;;4375898;28;658526;-74
2022/03/02 11:51:15;;;;;;;12.97;6.70;;;12.30;1.00;;;;;;4375224;28;658715;-75
2022/03/02 11:54:02;;;;;;;12.73;6.70;;;11.80;1.00;;;;;;4373091;28;659551;-75
2022/03/02 11:56:51;;;;;;;13.30;6.90;;;11.60;1.00;;;;;;4400028;28;658733;-74
2022/03/02 11:59:39;;;;;;;29.40;15.10;;;11.50;1.00;;;;;;4380871;28;658852;-74
2022/03/02 12:02:27;;;;;;;14.23;7.57;;;11.90;1.00;;;;;;4379858;28;659775;-74
2022/03/02 12:05:15;;;;;;;10.47;5.93;;;12.70;1.00;;;;;;4401404;28;659357;-74
2022/03/02 12:08:03;;;;;;;9.73;5.10;;;12.80;1.00;;;;;;4377987;28;659785;-74
2022/03/02 12:10:54;;;;;;;11.47;5.63;;;12.30;1.00;;;;;;4383467;28;658049;-73
2022/03/02 12:13:45;;;;;;;11.43;5.97;;;12.50;1.00;;;;;;4377772;28;658655;-74
2022/03/02 12:16:40;;;;;;;12.60;6.20;;;12.50;1.00;;;;;;4378410;28;659254;-74
2022/03/02 12:19:30;;;;;;;8.90;5.20;;;12.30;1.00;;;;;;4348712;28;659980;-74
2022/03/02 12:22:18;;;;;;;9.17;5.03;;;12.30;1.00;;;;;;4381364;28;657959;-75
2022/03/02 12:25:06;;;;;;;8.13;5.00;;;13.20;1.00;;;;;;4383309;28;657892;-74
2022/03/02 12:27:57;;;;;;;8.30;4.57;;;12.90;1.00;;;;;;4397983;28;658576;-74
2022/03/02 12:30:47;;;;;;;11.13;6.00;;;13.00;1.00;;;;;;4396846;28;657789;-74
2022/03/02 12:33:34;;;;;;;10.80;5.20;;;13.20;1.00;;;;;;4397759;28;658970;-74
2022/03/02 12:36:22;;;;;;;8.97;5.10;;;13.10;1.00;;;;;;4378538;28;659457;-74
2022/03/02 12:39:10;;;;;;;9.07;5.18;;;13.20;1.00;;;;;;4399984;28;658223;-74
2022/03/02 12:41:57;;;;;;;9.17;5.00;;;13.30;1.00;;;;;;4373675;28;658575;-74
2022/03/02 12:44:45;;;;;;;9.80;5.50;;;12.70;1.00;;;;;;4401168;28;658119;-74
2022/03/02 12:47:35;;;;;;;10.17;5.73;;;12.80;1.00;;;;;;4377044;28;658043;-74
2022/03/02 12:50:22;;;;;;;10.43;5.70;;;12.90;1.00;;;;;;4373294;28;660197;-74
2022/03/02 12:53:12;;;;;;;14.20;6.40;;;13.30;1.00;;;;;;4376755;28;659556;-73
2022/03/02 12:56:05;;;;;;;14.37;6.23;;;12.40;1.00;;;;;;4399598;28;658427;-74
2022/03/02 12:58:52;;;;;;;14.80;7.00;;;12.00;1.00;;;;;;4351014;28;659776;-74
2022/03/02 13:01:40;;;;;;;12.27;6.73;;;12.80;1.00;;;;;;4392902;28;658714;-74
2022/03/02 13:04:34;;;;;;;12.90;6.27;;;13.00;1.00;;;;;;4374151;28;660000;-75
2022/03/02 13:07:27;;;;;;;15.97;7.07;;;13.50;1.00;;;;;;4354854;28;659347;-74
2022/03/02 13:10:14;;;;;;;15.43;6.97;;;13.90;1.00;;;;;;4372089;28;659777;-74
2022/03/02 13:13:04;;;;;;;14.63;7.67;;;14.50;1.00;;;;;;4377673;28;658990;-74
2022/03/02 13:15:52;;;;;;;17.00;8.00;;;14.80;1.00;;;;;;4373831;28;658786;-74
2022/03/02 13:18:40;;;;;;;16.43;6.97;;;14.50;1.00;;;;;;4393025;28;659857;-74
2022/03/02 13:21:29;;;;;;;14.23;6.80;;;13.80;1.00;;;;;;4372366;28;660296;-73
2022/03/02 13:24:18;;;;;;;19.53;7.20;;;13.50;1.00;;;;;;4378513;28;658704;-75
2022/03/02 13:27:10;;;;;;;12.17;6.53;;;13.40;1.00;;;;;;4377170;28;658870;-73
2022/03/02 13:30:00;;;;;;;12.20;6.47;;;13.80;1.00;;;;;;4371612;28;659012;-74
2022/03/02 13:32:55;;;;;;;19.50;8.33;;;14.80;1.00;;;;;;4375591;28;659629;-74
2022/03/02 13:35:53;;;;;;;19.80;7.87;;;16.40;1.00;;;;;;4352841;28;658798;-75
2022/03/02 13:38:43;;;;;;;10.80;5.27;;;17.50;1.00;;;;;;4355442;28;658841;-74
2022/03/02 13:41:44;;;;;;;13.70;6.33;;;18.40;1.00;;;;;;4375416;28;659186;-74
2022/03/02 13:44:44;;;;;;;10.63;5.53;;;18.50;1.00;;;;;;4353151;28;658421;-74
2022/03/02 13:47:33;;;;;;;15.77;7.37;;;18.80;1.00;;;;;;4384671;28;658483;-74
2022/03/02 13:50:21;;;;;;;16.63;6.50;;;19.60;1.00;;;;;;4377751;28;658801;-73
2022/03/02 13:53:09;;;;;;;12.85;6.45;;;20.40;1.00;;;;;;4400337;28;659101;-74
2022/03/02 13:56:04;;;;;;;13.10;6.47;;;21.10;1.00;;;;;;4380116;28;659758;-74
2022/03/02 13:58:52;;;;;;;11.17;6.67;;;21.00;1.00;;;;;;4356815;28;659849;-74
2022/03/02 14:01:39;;;;;;;13.87;7.40;;;21.60;1.00;;;;;;4401756;28;658391;-74
2022/03/02 14:04:27;;;;;;;14.23;7.23;;;21.90;1.00;;;;;;4382999;28;658875;-74
2022/03/02 14:07:14;;;;;;;15.10;7.50;;;22.30;1.00;;;;;;4402813;28;659253;-74
2022/03/02 14:10:02;;;;;;;18.97;8.73;;;22.20;1.00;;;;;;4386375;28;659863;-74
2022/03/02 14:12:51;;;;;;;15.27;7.13;;;22.10;1.00;;;;;;4400097;28;659129;-74
2022/03/02 14:15:39;;;;;;;12.83;7.33;;;23.00;1.00;;;;;;4381704;28;659371;-74
2022/03/02 14:18:26;;;;;;;16.50;8.37;;;23.30;1.00;;;;;;4382937;28;658638;-74
2022/03/02 14:21:15;;;;;;;16.23;7.63;;;23.50;1.00;;;;;;4403304;28;659969;-75